Portada
METAR-TAF:

METAR-TAF

Aeroports :

Nimes, França

latitud: 43-45N, longitud: 004-25E, altitud: 94 m

Observació

L'informe es va fer fa 23 minuts, a les 04:30 UTC
Vent 6 kt del Nord
Temperatura 3°C
Humitat 65%
Pressió 1026 hPa
Visibilitat 10 km o més
sense núvols per sota de 1500 mi sense presència de cumulonimbus.

METAR: LFTW 200430Z AUTO 35006KT CAVOK 03/M03 Q1026 NOSIG

Hora: 05:53 (04:53 UTC)

Pronòstic

L'informe es va fer fa 2 hores i 53 minuts, a les 02:00 UTC
Pronòstic vàlid del 20 a les 03 UTC al 21 a les 03 UTC
Vent 12 kt del Nord
Visibilitat 10 km o més
sense núvols per sota de 1500 mi sense presència de cumulonimbus.

TAF: LFTW 200200Z 2003/2103 01012KT CAVOK

Observacions i pronòstics meteorològics de més de 4000 aeroports (METAR i TAF).

Les estacions disponibles són els punts grocs i vermells al mapa.

Posi el ratolí al punt desitjat per veure el nom de l'estació.

Feu clic per veure les observacions i els pronòstics meteorològics.

Per canviar el mapa: feu clic els botons verds amb una creu de color negre per apropar; al botó verd amb un guió per allunyar la imatge; o en les fletxes verdes per a mapes adjacents.


METAR-TAF: